Terminal Aerodrome Forecast
Issued by NWS Sioux Falls, SD

Home | Current Version | Previous Version | Graphics & Text | Print | Product List | Glossary Off
Versions: 1 2 3 4 5 6 7 8 9 10 11 12 13 14 15

622
FTUS43 KFSD 090520
TAFHON
TAF
KHON 090520Z 0906/1006 31005KT P6SM SKC
     FM090900 VRB03KT P6SM SKC
     FM091500 03003KT P6SM BKN080
     FM092100 04005KT P6SM BKN040=

USA.gov is the U.S. government's official web portal to all federal, state and local government web resources and services.